createdAt,value
2019-05-14T00:00:42.569Z,0.30
2019-05-14T00:01:42.600Z,0.30
2019-05-14T00:02:42.551Z,0.30
2019-05-14T00:03:42.551Z,0.30
2019-05-14T00:04:42.650Z,0.20
2019-05-14T00:05:42.609Z,0.30
2019-05-14T00:08:43.756Z,0.30
2019-05-14T00:09:42.496Z,0.30
2019-05-14T00:10:42.532Z,0.20
2019-05-14T00:11:42.488Z,0.30
2019-05-14T00:12:42.451Z,0.20
2019-05-14T00:13:42.444Z,0.30
2019-05-14T00:14:43.853Z,0.30
2019-05-14T00:15:42.440Z,0.20
2019-05-14T00:16:42.621Z,0.30
2019-05-14T00:17:42.460Z,0.30
2019-05-14T00:19:43.567Z,0.20
2019-05-14T00:20:42.397Z,0.30
2019-05-14T00:21:42.563Z,0.20
2019-05-14T00:22:42.354Z,0.20
2019-05-14T00:23:42.346Z,0.30
2019-05-14T00:24:42.342Z,0.30
2019-05-14T00:25:42.362Z,0.20
2019-05-14T00:26:42.840Z,0.30
2019-05-14T00:27:42.327Z,0.30
2019-05-14T00:28:42.474Z,0.30
2019-05-14T00:29:42.282Z,0.30
2019-05-14T00:30:42.384Z,0.20
2019-05-14T00:31:42.692Z,0.30
2019-05-14T00:33:43.225Z,0.30
2019-05-14T00:34:42.633Z,0.30
2019-05-14T00:35:42.211Z,0.20
2019-05-14T00:36:42.240Z,0.30
2019-05-14T00:37:42.191Z,0.30
2019-05-14T00:38:51.505Z,0.30
2019-05-14T00:39:42.176Z,0.30
2019-05-14T00:40:42.145Z,0.30
2019-05-14T00:41:42.253Z,0.30
2019-05-14T00:42:42.130Z,0.30
2019-05-14T00:43:42.321Z,0.30
2019-05-14T00:44:53.590Z,0.30
2019-05-14T00:45:43.099Z,0.30
2019-05-14T00:46:42.105Z,0.20
2019-05-14T00:47:42.123Z,0.30
2019-05-14T00:48:42.346Z,0.20
2019-05-14T00:49:42.629Z,0.30
2019-05-14T00:50:42.237Z,0.30
2019-05-14T00:51:42.140Z,0.20
2019-05-14T00:52:45.799Z,0.30
2019-05-14T00:53:44.092Z,0.30
2019-05-14T00:54:44.050Z,0.30
2019-05-14T00:55:42.158Z,0.30
2019-05-14T00:56:42.020Z,0.30
2019-05-14T00:57:42.694Z,0.20
2019-05-14T00:58:41.986Z,0.30
2019-05-14T00:59:42.021Z,0.30
2019-05-14T01:00:41.997Z,0.30
2019-05-14T01:01:42.489Z,0.30
2019-05-14T01:02:41.955Z,0.30
2019-05-14T01:03:41.938Z,0.30
2019-05-14T01:04:42.865Z,0.30
2019-05-14T01:05:41.929Z,0.30
2019-05-14T01:06:42.259Z,0.20
2019-05-14T01:07:42.471Z,0.30
2019-05-14T01:08:41.879Z,0.30
2019-05-14T01:09:42.304Z,0.30
2019-05-14T01:10:41.962Z,0.30
2019-05-14T01:11:42.182Z,0.30
2019-05-14T01:12:42.033Z,0.30
2019-05-14T01:13:41.986Z,0.30
2019-05-14T01:14:42.616Z,0.30
2019-05-14T01:15:41.776Z,0.30
2019-05-14T01:16:42.501Z,0.20
2019-05-14T01:17:42.286Z,0.30
2019-05-14T01:18:41.784Z,0.20
2019-05-14T01:19:42.590Z,0.30
2019-05-14T01:20:41.763Z,0.20
2019-05-14T01:21:41.917Z,0.30
2019-05-14T01:22:42.370Z,0.30
2019-05-14T01:23:41.761Z,0.20
2019-05-14T01:24:41.963Z,0.30
2019-05-14T01:25:42.244Z,0.30
2019-05-14T01:26:41.807Z,0.20
2019-05-14T01:27:41.649Z,0.20
2019-05-14T01:28:41.757Z,0.30
2019-05-14T01:29:42.472Z,0.30
2019-05-14T01:30:41.665Z,0.20
2019-05-14T01:31:41.955Z,0.30
2019-05-14T01:32:42.181Z,0.30
2019-05-14T01:33:41.602Z,0.30
2019-05-14T01:34:42.076Z,0.30
2019-05-14T01:35:42.125Z,0.30
2019-05-14T01:36:41.597Z,0.30
2019-05-14T01:37:41.895Z,0.20
2019-05-14T01:38:41.949Z,0.30
2019-05-14T01:39:42.090Z,0.30
2019-05-14T01:40:42.070Z,0.30
2019-05-14T01:41:42.249Z,0.20
2019-05-14T01:42:41.856Z,0.30
2019-05-14T01:43:42.057Z,0.20
2019-05-14T01:44:41.611Z,0.30
2019-05-14T01:45:41.818Z,0.20
2019-05-14T01:46:42.082Z,0.30
2019-05-14T01:47:41.668Z,0.30
2019-05-14T01:48:41.834Z,0.40
2019-05-14T01:49:42.807Z,0.30
2019-05-14T01:50:41.564Z,0.30
2019-05-14T01:51:42.432Z,0.30
2019-05-14T01:52:41.789Z,0.30
2019-05-14T01:53:41.804Z,0.40
2019-05-14T01:55:42.537Z,0.30
2019-05-14T01:56:42.290Z,0.30
2019-05-14T01:57:42.473Z,0.30
2019-05-14T01:58:41.839Z,0.30
2019-05-14T01:59:42.925Z,0.20
2019-05-14T02:00:41.695Z,0.30
2019-05-14T02:01:41.740Z,0.30
2019-05-14T02:02:41.885Z,0.30
2019-05-14T02:03:41.297Z,0.30
2019-05-14T02:04:42.677Z,0.30
2019-05-14T02:05:41.686Z,0.30
2019-05-14T02:06:41.552Z,0.30
2019-05-14T02:07:42.089Z,0.20
2019-05-14T02:08:41.506Z,0.30
2019-05-14T02:09:42.024Z,0.30
2019-05-14T02:10:41.936Z,0.30
2019-05-14T02:11:41.650Z,0.40
2019-05-14T02:12:42.383Z,0.40
2019-05-14T02:13:41.508Z,0.30
2019-05-14T02:14:42.523Z,0.30
2019-05-14T02:15:43.062Z,0.30
2019-05-14T02:16:42.202Z,0.30
2019-05-14T02:17:41.609Z,0.30
2019-05-14T02:18:41.598Z,0.30
2019-05-14T02:19:42.504Z,0.30
2019-05-14T02:20:41.454Z,0.30
2019-05-14T02:21:42.579Z,0.30
2019-05-14T02:22:41.786Z,0.30
2019-05-14T02:23:42.055Z,0.30
2019-05-14T02:24:41.806Z,0.30
2019-05-14T02:25:41.329Z,0.30
2019-05-14T02:26:42.466Z,0.30
2019-05-14T02:27:41.515Z,0.30
2019-05-14T02:28:42.091Z,0.30
2019-05-14T02:29:41.653Z,0.30
2019-05-14T02:30:52.572Z,0.30
2019-05-14T02:31:42.030Z,0.20
2019-05-14T02:32:41.045Z,0.30
2019-05-14T02:33:40.992Z,0.30
2019-05-14T02:34:41.026Z,0.30
2019-05-14T02:35:40.974Z,0.30
2019-05-14T02:36:40.915Z,0.30
2019-05-14T02:37:40.998Z,0.30
2019-05-14T02:38:40.920Z,0.30
2019-05-14T02:39:41.425Z,0.30
2019-05-14T02:40:40.899Z,0.30
2019-05-14T02:41:40.892Z,0.30
2019-05-14T02:42:40.946Z,0.40
2019-05-14T02:43:41.238Z,0.30
2019-05-14T02:44:41.212Z,0.30
2019-05-14T02:46:00.044Z,0.40
2019-05-14T02:46:41.814Z,0.30
2019-05-14T02:47:40.933Z,0.30
2019-05-14T02:48:40.841Z,0.30
2019-05-14T02:49:40.806Z,0.30
2019-05-14T02:50:40.772Z,0.30
2019-05-14T02:51:40.762Z,0.30
2019-05-14T02:52:40.843Z,0.30
2019-05-14T02:53:40.852Z,0.40
2019-05-14T02:54:40.920Z,0.30
2019-05-14T02:55:40.751Z,0.30
2019-05-14T02:56:40.709Z,0.30
2019-05-14T02:57:40.687Z,0.30
2019-05-14T02:58:40.802Z,0.40
2019-05-14T02:59:40.729Z,0.30
2019-05-14T03:00:41.032Z,0.30
2019-05-14T03:01:41.049Z,0.30
2019-05-14T03:02:40.684Z,0.30
2019-05-14T03:03:40.674Z,0.30
2019-05-14T03:04:40.632Z,0.40
2019-05-14T03:05:42.620Z,0.40
2019-05-14T03:06:40.636Z,0.40
2019-05-14T03:07:40.657Z,0.40
2019-05-14T03:08:40.668Z,0.30
2019-05-14T03:09:40.733Z,0.30
2019-05-14T03:10:40.575Z,0.30
2019-05-14T03:11:40.823Z,0.30
2019-05-14T03:12:40.561Z,0.30
2019-05-14T03:13:40.606Z,0.30
2019-05-14T03:14:40.579Z,0.30
2019-05-14T03:15:40.539Z,0.30
2019-05-14T03:16:40.769Z,0.30
2019-05-14T03:17:40.812Z,0.20
2019-05-14T03:18:40.600Z,0.30
2019-05-14T03:19:41.119Z,0.30
2019-05-14T03:20:40.517Z,0.30
2019-05-14T03:21:40.454Z,0.30
2019-05-14T03:22:53.968Z,0.30
2019-05-14T03:23:41.568Z,0.30
2019-05-14T03:24:40.467Z,0.30
2019-05-14T03:25:40.437Z,0.30
2019-05-14T03:26:40.443Z,0.30
2019-05-14T03:27:40.797Z,0.30
2019-05-14T03:28:40.481Z,0.40
2019-05-14T03:29:40.605Z,0.30
2019-05-14T03:30:42.475Z,0.40
2019-05-14T03:31:42.794Z,0.40
2019-05-14T03:32:42.550Z,0.30
2019-05-14T03:33:43.778Z,0.40
2019-05-14T03:34:43.127Z,0.40
2019-05-14T03:35:49.022Z,0.40
2019-05-14T03:36:43.067Z,0.30
2019-05-14T03:37:40.324Z,0.30
2019-05-14T03:38:40.339Z,0.30
2019-05-14T03:39:40.279Z,0.30
2019-05-14T03:40:40.295Z,0.30
2019-05-14T03:41:40.288Z,0.30
2019-05-14T03:42:40.261Z,0.30
2019-05-14T03:43:40.344Z,0.40
2019-05-14T03:44:40.272Z,0.40
2019-05-14T03:45:40.214Z,0.40
2019-05-14T03:46:49.436Z,0.30
2019-05-14T03:47:41.157Z,0.20
2019-05-14T03:48:40.368Z,0.30
2019-05-14T03:49:40.287Z,0.40
2019-05-14T03:50:40.159Z,0.40
2019-05-14T03:51:40.166Z,0.30
2019-05-14T03:52:40.227Z,0.40
2019-05-14T03:53:55.012Z,0.30
2019-05-14T03:54:41.189Z,0.30
2019-05-14T03:55:40.606Z,0.30
2019-05-14T03:56:40.100Z,0.30
2019-05-14T03:57:40.267Z,0.40
2019-05-14T03:58:40.120Z,0.30
2019-05-14T03:59:40.690Z,0.30
2019-05-14T04:00:40.061Z,0.30
2019-05-14T04:01:40.442Z,0.30
2019-05-14T04:02:40.018Z,0.30
2019-05-14T04:03:40.231Z,0.30
2019-05-14T04:04:39.999Z,0.30
2019-05-14T04:05:40.312Z,0.30
2019-05-14T04:06:40.423Z,0.30
2019-05-14T04:07:40.029Z,0.30
2019-05-14T04:08:40.085Z,0.30
2019-05-14T04:09:40.207Z,0.30
2019-05-14T04:10:49.033Z,0.30
2019-05-14T04:11:40.907Z,0.40
2019-05-14T04:12:40.500Z,0.30
2019-05-14T04:13:40.789Z,0.30
2019-05-14T04:14:39.990Z,0.40
2019-05-14T04:15:39.923Z,0.40
2019-05-14T04:16:41.754Z,0.40
2019-05-14T04:17:42.270Z,0.40
2019-05-14T04:18:40.731Z,0.30
2019-05-14T04:19:39.876Z,0.30
2019-05-14T04:20:50.102Z,0.30
2019-05-14T04:21:40.210Z,0.30
2019-05-14T04:22:39.786Z,0.30
2019-05-14T04:23:50.866Z,0.30
2019-05-14T04:24:41.437Z,0.20
2019-05-14T04:25:39.756Z,0.30
2019-05-14T04:26:56.268Z,0.30
2019-05-14T04:27:40.811Z,0.30
2019-05-14T04:28:39.723Z,0.30
2019-05-14T04:29:41.574Z,0.30
2019-05-14T04:30:40.229Z,0.30
2019-05-14T04:31:39.697Z,0.30
2019-05-14T04:32:39.775Z,0.30
2019-05-14T04:33:39.692Z,0.30
2019-05-14T04:34:40.072Z,0.30
2019-05-14T04:35:40.196Z,0.30
2019-05-14T04:36:39.650Z,0.40
2019-05-14T04:37:40.133Z,0.30
2019-05-14T04:38:40.920Z,0.30
2019-05-14T04:39:39.925Z,0.30
2019-05-14T04:40:40.063Z,0.30
2019-05-14T04:41:39.609Z,0.40
2019-05-14T04:42:40.275Z,0.30
2019-05-14T04:43:40.189Z,0.30
2019-05-14T04:44:40.581Z,0.30
2019-05-14T04:45:39.772Z,0.20
2019-05-14T04:46:39.735Z,0.30
2019-05-14T04:47:41.940Z,0.20
2019-05-14T04:48:43.269Z,0.30
2019-05-14T04:49:40.149Z,0.30
2019-05-14T04:50:40.457Z,0.30
2019-05-14T04:51:39.908Z,0.30
2019-05-14T04:52:40.532Z,0.30
2019-05-14T04:53:39.788Z,0.30
2019-05-14T04:54:39.861Z,0.30
2019-05-14T04:55:40.207Z,0.30
2019-05-14T04:56:40.216Z,0.20
2019-05-14T04:57:39.669Z,0.30
2019-05-14T04:58:40.908Z,0.30
2019-05-14T04:59:40.145Z,0.30
2019-05-14T05:00:39.400Z,0.30
2019-05-14T05:01:40.289Z,0.30
2019-05-14T05:02:39.864Z,0.30
2019-05-14T05:03:40.306Z,0.30
2019-05-14T05:04:41.159Z,0.30
2019-05-14T05:05:39.595Z,0.30
2019-05-14T05:06:39.861Z,0.30
2019-05-14T05:07:40.250Z,0.20
2019-05-14T05:08:39.991Z,0.30
2019-05-14T05:09:40.037Z,0.30
2019-05-14T05:10:39.922Z,0.20
2019-05-14T05:11:39.765Z,0.30
2019-05-14T05:12:39.301Z,0.30
2019-05-14T05:13:39.977Z,0.30
2019-05-14T05:14:39.356Z,0.30
2019-05-14T05:15:39.611Z,0.30
2019-05-14T05:16:39.412Z,0.30
2019-05-14T05:18:40.441Z,0.30
2019-05-14T05:19:45.338Z,0.30
2019-05-14T05:20:40.200Z,0.20
2019-05-14T05:21:39.223Z,0.20
2019-05-14T05:22:39.734Z,0.30
2019-05-14T05:23:41.212Z,0.30
2019-05-14T05:24:39.254Z,0.30
2019-05-14T05:25:39.164Z,0.30
2019-05-14T05:26:39.400Z,0.30
2019-05-14T05:27:39.097Z,0.30
2019-05-14T05:28:39.438Z,0.20
2019-05-14T05:29:39.418Z,0.30
2019-05-14T05:30:39.090Z,0.30
2019-05-14T05:31:39.054Z,0.20
2019-05-14T05:32:39.143Z,0.30
2019-05-14T05:33:39.098Z,0.30
2019-05-14T05:34:40.998Z,0.20
2019-05-14T05:35:42.231Z,0.30
2019-05-14T05:36:39.020Z,0.30
2019-05-14T05:37:39.029Z,0.30
2019-05-14T05:38:39.540Z,0.20
2019-05-14T05:39:38.996Z,0.30
2019-05-14T05:40:39.232Z,0.30
2019-05-14T05:41:38.997Z,0.30
2019-05-14T05:42:39.022Z,0.30
2019-05-14T05:43:39.497Z,0.20
2019-05-14T05:44:39.519Z,0.30
2019-05-14T05:45:38.937Z,0.30
2019-05-14T05:46:39.010Z,0.20
2019-05-14T05:47:39.302Z,0.20
2019-05-14T05:48:39.178Z,0.30
2019-05-14T05:49:38.862Z,0.30
2019-05-14T05:50:39.037Z,0.30
2019-05-14T05:51:39.391Z,0.30
2019-05-14T05:52:39.016Z,0.30
2019-05-14T05:53:39.481Z,0.30
2019-05-14T05:54:38.845Z,0.20
2019-05-14T05:55:39.378Z,0.30
2019-05-14T05:56:38.954Z,0.30
2019-05-14T05:57:39.384Z,0.30
2019-05-14T05:58:40.837Z,0.30
2019-05-14T05:59:39.422Z,0.30
2019-05-14T06:00:39.948Z,0.20
2019-05-14T06:01:45.746Z,0.20
2019-05-14T06:02:40.139Z,0.30
2019-05-14T06:03:39.373Z,0.30
2019-05-14T06:04:39.496Z,0.30
2019-05-14T06:05:39.164Z,0.30
2019-05-14T06:06:42.749Z,0.30
2019-05-14T06:07:39.409Z,0.30
2019-05-14T06:08:39.010Z,0.30
2019-05-14T06:09:38.655Z,0.30
2019-05-14T06:10:39.982Z,0.30
2019-05-14T06:11:40.696Z,0.30
2019-05-14T06:12:39.038Z,0.30
2019-05-14T06:13:39.293Z,0.30
2019-05-14T06:14:38.635Z,0.20
2019-05-14T06:15:47.506Z,0.30
2019-05-14T06:16:39.643Z,0.30
2019-05-14T06:17:40.661Z,0.20
2019-05-14T06:18:39.435Z,0.30
2019-05-14T06:19:38.573Z,0.30
2019-05-14T06:20:40.712Z,0.30
2019-05-14T06:21:39.827Z,0.30
2019-05-14T06:22:38.731Z,0.20
2019-05-14T06:23:38.872Z,0.20
2019-05-14T06:24:39.129Z,0.30
2019-05-14T06:25:39.970Z,0.30
2019-05-14T06:26:38.566Z,0.30
2019-05-14T06:27:38.484Z,0.20
2019-05-14T06:28:40.868Z,0.30
2019-05-14T06:29:38.480Z,0.30
2019-05-14T06:30:39.491Z,0.30
2019-05-14T06:31:38.866Z,0.30
2019-05-14T06:32:38.892Z,0.30
2019-05-14T06:33:39.328Z,0.30
2019-05-14T06:34:38.493Z,0.20
2019-05-14T06:35:39.558Z,0.30
2019-05-14T06:36:39.590Z,0.20
2019-05-14T06:37:38.693Z,0.20
2019-05-14T06:38:38.955Z,0.20
2019-05-14T06:39:39.167Z,0.20
2019-05-14T06:41:42.718Z,0.30
2019-05-14T06:45:18.987Z,0.80
2019-05-14T06:46:19.550Z,0.30
2019-05-14T06:47:18.941Z,0.20
2019-05-14T06:47:59.301Z,0.20
2019-05-14T06:48:59.019Z,0.20
2019-05-14T06:49:59.271Z,0.30
2019-05-14T06:50:58.458Z,0.20
2019-05-14T06:52:58.942Z,0.20
2019-05-14T06:54:19.654Z,0.30
2019-05-14T06:55:18.938Z,0.20
2019-05-14T06:56:21.581Z,0.20
2019-05-14T06:57:18.834Z,0.20
2019-05-14T06:58:20.230Z,0.20
2019-05-14T06:58:58.396Z,0.20
2019-05-14T06:59:58.880Z,0.20
2019-05-14T07:00:58.702Z,0.20
2019-05-14T07:01:58.125Z,0.20
2019-05-14T07:02:58.397Z,0.20
2019-05-14T07:03:58.160Z,0.20
2019-05-14T07:04:58.982Z,0.20
2019-05-14T07:05:59.565Z,0.20
2019-05-14T07:06:59.079Z,0.20
2019-05-14T07:07:59.688Z,0.20
2019-05-14T07:08:58.839Z,0.20
2019-05-14T07:09:58.307Z,0.20
2019-05-14T07:10:59.278Z,0.20
2019-05-14T07:11:58.456Z,0.20
2019-05-14T07:12:59.281Z,0.20
2019-05-14T07:13:58.192Z,0.20
2019-05-14T07:14:58.543Z,0.20
2019-05-14T07:15:58.390Z,0.20
2019-05-14T07:16:58.924Z,0.20
2019-05-14T07:17:58.435Z,0.20
2019-05-14T07:18:59.189Z,0.20
2019-05-14T07:19:58.244Z,0.20
2019-05-14T07:20:58.839Z,0.20
2019-05-14T07:21:58.268Z,0.20
2019-05-14T07:22:58.625Z,0.20
2019-05-14T07:23:59.307Z,0.20
2019-05-14T07:24:58.671Z,0.20
2019-05-14T07:25:58.870Z,0.20
2019-05-14T07:26:58.598Z,0.20
2019-05-14T07:27:58.329Z,0.20
2019-05-14T07:28:59.048Z,0.20
2019-05-14T07:29:58.322Z,0.20
2019-05-14T07:30:59.291Z,0.20
2019-05-14T07:31:58.240Z,0.20
2019-05-14T07:32:58.840Z,0.20
2019-05-14T07:33:58.225Z,0.20
2019-05-14T07:34:59.453Z,0.20
2019-05-14T07:35:59.370Z,0.20
2019-05-14T07:36:58.680Z,0.20
2019-05-14T07:37:59.136Z,0.20
2019-05-14T07:39:00.062Z,0.20
2019-05-14T07:39:58.024Z,0.20
2019-05-14T07:40:58.597Z,0.20
2019-05-14T07:41:59.073Z,0.20
2019-05-14T07:42:58.356Z,0.20
2019-05-14T07:43:58.629Z,0.20
2019-05-14T07:44:58.843Z,0.20
2019-05-14T07:45:58.268Z,0.20
2019-05-14T07:46:58.964Z,0.20
2019-05-14T07:47:58.312Z,0.20
2019-05-14T07:49:07.211Z,0.20
2019-05-14T07:49:58.369Z,0.20
2019-05-14T07:50:59.940Z,0.20
2019-05-14T07:51:59.260Z,0.20
2019-05-14T07:52:58.677Z,0.20
2019-05-14T07:53:57.965Z,0.20
2019-05-14T07:54:58.697Z,0.20
2019-05-14T07:55:59.199Z,0.20
2019-05-14T07:56:59.038Z,0.20
2019-05-14T07:57:58.748Z,0.10
2019-05-14T07:58:58.446Z,0.20
2019-05-14T07:59:58.868Z,0.20
2019-05-14T08:00:58.623Z,0.20
2019-05-14T08:01:58.640Z,0.20
2019-05-14T08:02:58.180Z,0.20
2019-05-14T08:03:59.932Z,0.20
2019-05-14T08:04:58.044Z,0.20
2019-05-14T08:05:58.850Z,0.20
2019-05-14T08:06:58.230Z,0.20
2019-05-14T08:07:58.599Z,0.10
2019-05-14T08:08:59.083Z,0.20
2019-05-14T08:09:58.348Z,0.10
2019-05-14T08:10:59.197Z,0.10
2019-05-14T08:11:58.707Z,0.10
2019-05-14T08:12:58.876Z,0.10
2019-05-14T08:13:58.535Z,0.10
2019-05-14T08:15:13.459Z,0.10
2019-05-14T08:15:58.488Z,0.20
2019-05-14T08:16:59.310Z,0.10
2019-05-14T08:17:58.562Z,0.10
2019-05-14T08:18:57.010Z,0.20
2019-05-14T08:20:00.973Z,0.10
2019-05-14T08:20:59.245Z,0.10
2019-05-14T08:21:58.688Z,0.20
2019-05-14T08:22:58.260Z,0.10
2019-05-14T08:23:59.284Z,0.10
2019-05-14T08:24:58.100Z,0.10
2019-05-14T08:25:58.758Z,0.10
2019-05-14T08:26:57.946Z,0.10
2019-05-14T08:27:58.638Z,0.10
2019-05-14T08:28:58.084Z,0.10
2019-05-14T08:29:58.795Z,0.10
2019-05-14T08:30:58.649Z,0.10
2019-05-14T08:31:58.258Z,0.10
2019-05-14T08:32:58.279Z,0.10
2019-05-14T08:33:59.004Z,0.10
2019-05-14T08:34:58.448Z,0.10
2019-05-14T08:35:58.231Z,0.10
2019-05-14T08:36:58.787Z,0.10
2019-05-14T08:38:07.303Z,0.20
2019-05-14T08:38:58.182Z,0.10
2019-05-14T08:39:58.840Z,0.10
2019-05-14T08:40:58.853Z,0.10
2019-05-14T08:42:03.608Z,0.20
2019-05-14T08:42:58.325Z,0.10
2019-05-14T08:43:59.284Z,0.20
2019-05-14T08:44:59.083Z,0.10
2019-05-14T08:45:58.554Z,0.10
2019-05-14T08:46:59.038Z,0.20
2019-05-14T08:47:58.678Z,0.10
2019-05-14T08:48:58.592Z,0.20
2019-05-14T08:49:59.640Z,0.10
2019-05-14T08:50:58.700Z,0.10
2019-05-14T08:51:56.562Z,0.10
2019-05-14T08:52:58.305Z,0.10
2019-05-14T08:53:59.056Z,0.10
2019-05-14T08:55:07.295Z,0.10
2019-05-14T08:55:58.829Z,0.10
2019-05-14T08:56:58.438Z,0.10
2019-05-14T08:58:59.048Z,0.10
2019-05-14T08:59:59.154Z,0.20
2019-05-14T09:01:19.443Z,0.10
2019-05-14T09:02:05.406Z,0.10
2019-05-14T09:04:09.005Z,0.80
2019-05-14T09:05:28.767Z,0.20
2019-05-14T09:06:09.199Z,0.10
2019-05-14T09:07:09.523Z,0.10
2019-05-14T09:08:08.819Z,0.10
2019-05-14T09:09:09.224Z,0.10
2019-05-14T09:10:08.637Z,0.10
2019-05-14T09:11:09.803Z,0.10
2019-05-14T09:12:12.534Z,0.10
2019-05-14T09:13:08.716Z,0.10
2019-05-14T09:14:10.810Z,0.20
2019-05-14T09:15:09.813Z,0.10
2019-05-14T09:16:09.320Z,0.10
2019-05-14T09:17:09.715Z,0.10
2019-05-14T09:18:11.523Z,0.10
2019-05-14T09:19:08.728Z,0.10
2019-05-14T09:20:10.897Z,0.20
2019-05-14T09:21:08.731Z,0.10
2019-05-14T09:22:09.602Z,0.10
2019-05-14T09:23:09.169Z,0.10
2019-05-14T09:24:09.554Z,0.10
2019-05-14T09:25:08.485Z,0.10
2019-05-14T09:26:09.573Z,0.10
2019-05-14T09:27:08.473Z,0.10
2019-05-14T09:28:09.088Z,0.10
2019-05-14T09:30:08.991Z,0.10
2019-05-14T09:30:09.632Z,0.10
2019-05-14T09:31:08.457Z,0.10
2019-05-14T09:33:08.692Z,0.10
2019-05-14T09:33:18.710Z,0.10
2019-05-14T09:34:09.212Z,0.10
2019-05-14T09:35:09.669Z,0.10
2019-05-14T09:36:18.632Z,0.10
2019-05-14T09:37:08.723Z,0.10
2019-05-14T09:38:08.753Z,0.10
2019-05-14T09:39:11.828Z,0.10
2019-05-14T09:40:08.779Z,0.10
2019-05-14T09:41:14.917Z,0.10
2019-05-14T09:42:08.363Z,0.10
2019-05-14T09:43:09.187Z,0.10
2019-05-14T09:44:09.299Z,0.10
2019-05-14T09:45:10.876Z,0.10
2019-05-14T09:46:09.084Z,0.10
2019-05-14T09:47:08.441Z,0.10
2019-05-14T09:48:08.857Z,0.10
2019-05-14T09:49:08.066Z,0.10
2019-05-14T09:50:16.434Z,0.10
2019-05-14T09:51:09.249Z,0.10
2019-05-14T09:52:09.092Z,0.10
2019-05-14T09:53:09.714Z,0.10
2019-05-14T09:54:08.588Z,0.10
2019-05-14T09:55:09.258Z,0.10
2019-05-14T09:56:09.116Z,0.10
2019-05-14T09:57:08.367Z,0.10
2019-05-14T09:58:08.163Z,0.10
2019-05-14T09:59:08.992Z,0.10
2019-05-14T10:00:08.924Z,0.10
2019-05-14T10:01:08.521Z,0.10
2019-05-14T10:02:08.984Z,0.10
2019-05-14T10:03:09.597Z,0.10
2019-05-14T10:04:09.047Z,0.10
2019-05-14T10:05:09.078Z,0.10
2019-05-14T10:06:09.480Z,0.10
2019-05-14T10:07:08.724Z,0.10
2019-05-14T10:08:08.986Z,0.10
2019-05-14T10:09:08.520Z,0.10
2019-05-14T10:10:06.821Z,0.10
2019-05-14T10:11:06.811Z,0.10
2019-05-14T10:12:08.893Z,0.10
2019-05-14T10:13:09.790Z,0.10
2019-05-14T10:14:07.946Z,0.10
2019-05-14T10:15:08.817Z,0.20
2019-05-14T10:16:09.270Z,0.10
2019-05-14T10:17:06.725Z,0.10
2019-05-14T10:18:11.045Z,0.10
2019-05-14T10:19:07.724Z,0.10
2019-05-14T10:20:08.883Z,0.10
2019-05-14T10:21:08.565Z,0.10
2019-05-14T10:22:08.329Z,0.10
2019-05-14T10:23:09.072Z,0.10
2019-05-14T10:24:09.125Z,0.10
2019-05-14T10:25:08.874Z,0.10
2019-05-14T10:26:08.910Z,0.10
2019-05-14T10:27:09.063Z,0.10
2019-05-14T10:28:08.574Z,0.10
2019-05-14T10:29:08.629Z,0.10
2019-05-14T10:30:09.896Z,0.10
2019-05-14T10:31:09.346Z,0.10
2019-05-14T10:32:08.895Z,0.10
2019-05-14T10:33:10.418Z,0.10
2019-05-14T10:34:08.407Z,0.10
2019-05-14T10:36:09.223Z,0.10
2019-05-14T10:37:08.682Z,0.10
2019-05-14T10:38:08.802Z,0.10
2019-05-14T10:39:09.176Z,0.20
2019-05-14T10:40:06.479Z,0.10
2019-05-14T10:41:18.158Z,0.10
2019-05-14T10:42:08.689Z,0.10
2019-05-14T10:43:08.861Z,0.10
2019-05-14T10:44:09.066Z,0.10
2019-05-14T10:45:11.999Z,0.10
2019-05-14T10:46:09.056Z,0.10
2019-05-14T10:47:08.978Z,0.20
2019-05-14T10:48:06.340Z,0.10
2019-05-14T10:49:19.313Z,0.10
2019-05-14T10:50:13.321Z,0.00
2019-05-14T10:51:09.654Z,0.10
2019-05-14T10:52:08.257Z,0.00
2019-05-14T10:53:09.004Z,0.00
2019-05-14T10:54:21.193Z,0.10
2019-05-14T10:55:08.046Z,0.10
2019-05-14T10:56:06.378Z,0.10
2019-05-14T10:57:09.335Z,0.10
2019-05-14T10:58:08.682Z,0.10
2019-05-14T10:59:09.484Z,0.10
2019-05-14T11:00:08.919Z,0.10
2019-05-14T11:01:10.960Z,0.10
2019-05-14T11:02:11.574Z,0.10
2019-05-14T11:03:06.197Z,0.10
2019-05-14T11:04:08.239Z,0.20
2019-05-14T11:05:06.244Z,0.10
2019-05-14T11:06:11.418Z,0.20
2019-05-14T11:07:06.321Z,0.10
2019-05-14T11:08:06.231Z,0.20
2019-05-14T11:09:08.869Z,0.20
2019-05-14T11:10:06.174Z,0.10
2019-05-14T11:11:06.121Z,0.40
2019-05-14T11:12:06.097Z,0.30
2019-05-14T11:13:08.772Z,0.00
2019-05-14T11:14:08.610Z,0.60
2019-05-14T11:15:06.099Z,0.00
2019-05-14T11:16:08.601Z,0.00
2019-05-14T11:17:11.335Z,0.00
2019-05-14T11:18:08.729Z,0.10
2019-05-14T11:19:09.067Z,0.00
2019-05-14T11:20:07.973Z,0.10
2019-05-14T11:21:21.553Z,0.10
2019-05-14T11:22:08.466Z,0.10
2019-05-14T11:23:05.970Z,0.00
2019-05-14T11:24:05.953Z,0.10
2019-05-14T11:25:05.944Z,0.10
2019-05-14T11:26:05.924Z,0.10
2019-05-14T11:27:06.028Z,0.10
2019-05-14T11:28:05.996Z,0.10
2019-05-14T11:29:05.913Z,0.20
2019-05-14T11:30:05.910Z,0.10
2019-05-14T11:31:05.875Z,1.40
2019-05-14T11:32:05.998Z,0.10
2019-05-14T11:33:05.893Z,0.10
2019-05-14T11:34:08.090Z,0.10
2019-05-14T11:35:11.709Z,0.30
2019-05-14T11:36:09.355Z,0.10
2019-05-14T11:37:08.343Z,0.20
2019-05-14T11:38:24.068Z,0.10
2019-05-14T11:39:09.377Z,0.10
2019-05-14T11:40:05.774Z,0.10
2019-05-14T11:41:05.774Z,0.10
2019-05-14T11:42:08.293Z,0.10
2019-05-14T11:43:08.260Z,0.10
2019-05-14T11:44:05.773Z,0.20
2019-05-14T11:45:05.769Z,0.10
2019-05-14T11:46:08.392Z,0.10
2019-05-14T11:47:05.724Z,0.10
2019-05-14T11:48:05.685Z,0.10
2019-05-14T11:49:08.672Z,0.10
2019-05-14T11:50:05.685Z,0.10
2019-05-14T11:51:08.790Z,0.10
2019-05-14T11:52:10.516Z,0.10
2019-05-14T11:53:08.528Z,0.10
2019-05-14T11:54:05.629Z,0.00
2019-05-14T11:55:05.612Z,0.10
2019-05-14T11:56:07.917Z,0.10
2019-05-14T11:57:11.169Z,0.10
2019-05-14T11:58:08.609Z,0.10
2019-05-14T11:59:05.563Z,0.10
2019-05-14T12:00:05.548Z,0.10
2019-05-14T12:01:05.575Z,0.10
2019-05-14T12:02:05.594Z,0.10
2019-05-14T12:03:05.574Z,0.10
2019-05-14T12:04:05.522Z,0.10
2019-05-14T12:05:05.499Z,0.10
2019-05-14T12:06:05.539Z,0.10
2019-05-14T12:07:05.613Z,0.10
2019-05-14T12:08:05.508Z,0.10
2019-05-14T12:09:05.487Z,0.10
2019-05-14T12:10:05.455Z,0.10
2019-05-14T12:11:05.513Z,0.10
2019-05-14T12:12:05.491Z,0.10
2019-05-14T12:13:05.453Z,0.10
2019-05-14T12:14:05.405Z,0.10
2019-05-14T12:15:05.440Z,0.10
2019-05-14T12:16:05.392Z,0.10
2019-05-14T12:17:05.499Z,0.10
2019-05-14T12:18:05.369Z,0.10
2019-05-14T12:19:05.398Z,0.10
2019-05-14T12:20:05.359Z,0.10
2019-05-14T12:21:05.350Z,0.10
2019-05-14T12:22:10.432Z,0.10
2019-05-14T12:23:08.955Z,0.00
2019-05-14T12:24:06.346Z,0.10
2019-05-14T12:25:05.305Z,0.10
2019-05-14T12:26:05.296Z,0.00
2019-05-14T12:27:05.335Z,0.10
2019-05-14T12:28:13.240Z,0.00
2019-05-14T12:29:06.272Z,0.00
2019-05-14T12:30:05.230Z,0.00
2019-05-14T12:31:05.234Z,0.00
2019-05-14T12:32:05.254Z,0.00
2019-05-14T12:33:05.200Z,0.00
2019-05-14T12:34:05.186Z,0.00
2019-05-14T12:35:05.175Z,0.00
2019-05-14T12:36:05.193Z,0.00
2019-05-14T12:37:05.230Z,0.00
2019-05-14T12:38:05.155Z,0.00
2019-05-14T12:39:05.128Z,0.00
2019-05-14T12:40:05.116Z,0.00
2019-05-14T12:41:05.124Z,0.00
2019-05-14T12:42:05.175Z,0.00
2019-05-14T12:43:05.149Z,0.00
2019-05-14T12:44:05.077Z,0.00
2019-05-14T12:45:05.076Z,0.00
2019-05-14T12:46:05.155Z,0.00
2019-05-14T12:47:05.066Z,0.00
2019-05-14T12:48:05.104Z,0.00
2019-05-14T12:49:07.040Z,0.00
2019-05-14T12:50:09.503Z,0.00
2019-05-14T12:51:05.029Z,0.00
2019-05-14T12:52:19.138Z,0.00
2019-05-14T12:53:08.254Z,0.00
2019-05-14T12:54:05.012Z,0.00
2019-05-14T12:55:04.975Z,0.00
2019-05-14T12:56:04.981Z,0.00
2019-05-14T12:57:05.011Z,0.00
2019-05-14T12:58:04.963Z,0.00
2019-05-14T12:59:04.977Z,0.00
2019-05-14T13:00:05.022Z,0.00
2019-05-14T13:01:04.940Z,0.00
2019-05-14T13:02:04.884Z,0.00
2019-05-14T13:03:04.995Z,0.00
2019-05-14T13:05:08.738Z,0.00
2019-05-14T13:06:04.900Z,0.00
2019-05-14T13:07:04.887Z,0.00
2019-05-14T13:08:04.872Z,0.00
2019-05-14T13:09:04.825Z,0.00
2019-05-14T13:11:06.118Z,0.00
2019-05-14T13:12:04.805Z,0.00
2019-05-14T13:13:04.811Z,0.00
2019-05-14T13:14:04.765Z,0.00
2019-05-14T13:15:04.812Z,0.00
2019-05-14T13:16:04.862Z,0.00
2019-05-14T13:17:04.763Z,0.00
2019-05-14T13:18:04.947Z,0.00
2019-05-14T13:19:04.766Z,0.00
2019-05-14T13:20:04.770Z,0.00
2019-05-14T13:21:04.765Z,0.00
2019-05-14T13:22:13.206Z,0.00
2019-05-14T13:23:05.748Z,0.00
2019-05-14T13:24:04.701Z,0.00
2019-05-14T13:25:04.651Z,0.00
2019-05-14T13:26:04.626Z,0.00
2019-05-14T13:27:04.629Z,0.00
2019-05-14T13:28:11.919Z,0.00
2019-05-14T13:29:08.211Z,0.00
2019-05-14T13:30:05.584Z,0.00
2019-05-14T13:31:04.571Z,0.00
2019-05-14T13:32:04.560Z,0.00
2019-05-14T13:33:04.590Z,0.00
2019-05-14T13:34:04.570Z,0.00